Time,TemperatureF,DewpointF,PressureIn,WindDirection,WindDirectionDegrees,WindSpeedMPH,WindSpeedGustMPH,Humidity,HourlyPrecipIn,Conditions,Clouds,dailyrainin,SoftwareType,DateUTC
2013-08-19 00:04:00,81.3,78.8,30.12,NNW,334,0.0,1.0,92,0.00,,,0.00,Wunderground v.1.15,2013-08-19 04:04:00,
2013-08-19 00:14:00,81.1,78.6,30.12,NNW,328,0.0,0.0,92,0.00,,,0.00,Wunderground v.1.15,2013-08-19 04:14:00,
2013-08-19 00:18:00,81.2,78.7,30.11,WNW,283,1.0,1.0,92,0.00,,,0.00,Wunderground v.1.15,2013-08-19 04:18:00,
2013-08-19 00:23:00,81.3,78.8,30.11,WNW,283,1.0,1.0,92,0.00,,,0.00,Wunderground v.1.15,2013-08-19 04:23:00,
2013-08-19 00:28:00,81.2,78.7,30.11,WNW,283,0.0,0.0,92,0.00,,,0.00,Wunderground v.1.15,2013-08-19 04:28:00,
2013-08-19 00:34:00,81.1,78.6,30.11,WNW,283,0.0,1.0,92,0.00,,,0.00,Wunderground v.1.15,2013-08-19 04:34:00,
2013-08-19 00:38:00,81.0,78.8,30.10,WNW,283,0.0,0.0,93,0.00,,,0.00,Wunderground v.1.15,2013-08-19 04:38:00,
2013-08-19 00:43:00,81.0,78.8,30.10,WNW,285,0.0,2.0,93,0.00,,,0.00,Wunderground v.1.15,2013-08-19 04:43:00,
2013-08-19 00:49:00,80.9,78.7,30.10,NW,304,1.0,3.0,93,0.00,,,0.00,Wunderground v.1.15,2013-08-19 04:49:00,
2013-08-19 00:54:00,80.9,78.7,30.10,NW,311,2.0,3.0,93,0.00,,,0.00,Wunderground v.1.15,2013-08-19 04:54:00,
2013-08-19 00:59:00,80.9,78.7,30.10,WNW,302,2.0,2.0,93,0.00,,,0.00,Wunderground v.1.15,2013-08-19 04:59:00,
2013-08-19 01:04:00,80.9,79.0,30.10,NW,311,2.0,2.0,94,0.00,,,0.00,Wunderground v.1.15,2013-08-19 05:04:00,
2013-08-19 01:08:00,80.8,78.9,30.09,WNW,284,1.0,1.0,94,0.00,,,0.00,Wunderground v.1.15,2013-08-19 05:08:00,
2013-08-19 01:14:00,80.8,78.9,30.09,NW,309,1.0,1.0,94,0.00,,,0.00,Wunderground v.1.15,2013-08-19 05:14:00,
2013-08-19 01:19:00,80.7,78.8,30.09,NW,309,1.0,1.0,94,0.00,,,0.00,Wunderground v.1.15,2013-08-19 05:19:00,
2013-08-19 01:24:00,80.6,78.7,30.09,NW,307,0.0,1.0,94,0.00,,,0.00,Wunderground v.1.15,2013-08-19 05:24:00,
2013-08-19 01:29:00,80.6,78.7,30.09,WNW,293,1.0,1.0,94,0.00,,,0.00,Wunderground v.1.15,2013-08-19 05:29:00,
2013-08-19 01:33:00,80.6,78.7,30.09,NNW,345,1.0,1.0,94,0.00,,,0.00,Wunderground v.1.15,2013-08-19 05:33:00,
2013-08-19 01:38:00,80.6,78.7,30.09,NW,313,1.0,1.0,94,0.00,,,0.00,Wunderground v.1.15,2013-08-19 05:38:00,
2013-08-19 01:43:00,80.5,78.6,30.09,NW,325,1.0,1.0,94,0.00,,,0.00,Wunderground v.1.15,2013-08-19 05:43:00,
2013-08-19 01:49:00,80.5,78.6,30.09,NW,325,0.0,0.0,94,0.00,,,0.00,Wunderground v.1.15,2013-08-19 05:49:00,
2013-08-19 01:53:00,80.4,78.5,30.09,NW,323,0.0,0.0,94,0.00,,,0.00,Wunderground v.1.15,2013-08-19 05:53:00,
2013-08-19 01:59:00,80.3,78.4,30.09,NW,323,0.0,0.0,94,0.00,,,0.00,Wunderground v.1.15,2013-08-19 05:59:00,
2013-08-19 02:04:00,80.3,78.4,30.09,NW,323,0.0,0.0,94,0.00,,,0.00,Wunderground v.1.15,2013-08-19 06:04:00,
2013-08-19 02:09:00,80.2,78.6,30.09,NW,323,0.0,0.0,95,0.00,,,0.00,Wunderground v.1.15,2013-08-19 06:09:00,
2013-08-19 02:14:00,80.3,78.7,30.09,NNW,328,0.0,0.0,95,0.00,,,0.00,Wunderground v.1.15,2013-08-19 06:14:00,
2013-08-19 02:18:00,80.3,78.7,30.09,NNW,328,0.0,0.0,95,0.00,,,0.00,Wunderground v.1.15,2013-08-19 06:18:00,
2013-08-19 02:23:00,80.2,78.6,30.08,NW,311,0.0,1.0,95,0.00,,,0.00,Wunderground v.1.15,2013-08-19 06:23:00,
2013-08-19 02:29:00,80.2,78.3,30.08,NW,314,0.0,0.0,94,0.00,,,0.00,Wunderground v.1.15,2013-08-19 06:29:00,
2013-08-19 02:39:00,80.3,78.4,30.08,West,277,1.0,1.0,94,0.00,,,0.00,Wunderground v.1.15,2013-08-19 06:39:00,
2013-08-19 02:44:00,80.3,78.4,30.08,NNW,330,1.0,1.0,94,0.00,,,0.00,Wunderground v.1.15,2013-08-19 06:44:00,
2013-08-19 02:49:00,80.4,78.5,30.07,ENE,58,2.0,2.0,94,0.00,,,0.00,Wunderground v.1.15,2013-08-19 06:49:00,
2013-08-19 02:54:00,80.4,78.5,30.07,NW,309,1.0,2.0,94,0.00,,,0.00,Wunderground v.1.15,2013-08-19 06:54:00,
2013-08-19 02:59:00,80.5,78.6,30.07,NNW,330,2.0,2.0,94,0.00,,,0.00,Wunderground v.1.15,2013-08-19 06:59:00,
2013-08-19 03:04:00,80.5,78.6,30.07,NNW,346,2.0,2.0,94,0.00,,,0.00,Wunderground v.1.15,2013-08-19 07:04:00,
2013-08-19 03:09:00,80.5,78.6,30.07,NW,311,2.0,2.0,94,0.00,,,0.00,Wunderground v.1.15,2013-08-19 07:09:00,
2013-08-19 03:14:00,80.5,78.6,30.07,WNW,297,1.0,2.0,94,0.00,,,0.00,Wunderground v.1.15,2013-08-19 07:14:00,
2013-08-19 03:23:00,80.4,78.5,30.07,North,9,1.0,4.0,94,0.00,,,0.00,Wunderground v.1.15,2013-08-19 07:23:00,
2013-08-19 03:28:00,80.3,78.4,30.07,NW,325,1.0,1.0,94,0.00,,,0.00,Wunderground v.1.15,2013-08-19 07:28:00,
2013-08-19 03:34:00,80.3,78.4,30.06,NE,56,1.0,1.0,94,0.00,,,0.00,Wunderground v.1.15,2013-08-19 07:34:00,
2013-08-19 03:39:00,80.3,78.7,30.06,NNE,24,1.0,1.0,95,0.00,,,0.00,Wunderground v.1.15,2013-08-19 07:39:00,
2013-08-19 03:44:00,80.2,78.6,30.06,NNE,25,0.0,1.0,95,0.00,,,0.00,Wunderground v.1.15,2013-08-19 07:44:00,
2013-08-19 03:49:00,80.1,78.5,30.06,NW,326,0.0,0.0,95,0.00,,,0.00,Wunderground v.1.15,2013-08-19 07:49:00,
2013-08-19 03:54:00,80.1,78.5,30.06,NW,326,0.0,0.0,95,0.00,,,0.00,Wunderground v.1.15,2013-08-19 07:54:00,
2013-08-19 03:59:00,80.1,78.5,30.06,WNW,297,0.0,2.0,95,0.00,,,0.00,Wunderground v.1.15,2013-08-19 07:59:00,
2013-08-19 04:04:00,80.0,78.4,30.06,NW,309,1.0,2.0,95,0.00,,,0.00,Wunderground v.1.15,2013-08-19 08:04:00,
2013-08-19 04:08:00,80.0,78.4,30.06,NW,309,1.0,1.0,95,0.00,,,0.00,Wunderground v.1.15,2013-08-19 08:08:00,
2013-08-19 04:14:00,79.9,78.7,30.06,WNW,301,0.0,2.0,96,0.00,,,0.00,Wunderground v.1.15,2013-08-19 08:14:00,
2013-08-19 04:18:00,80.0,78.8,30.06,NW,309,1.0,3.0,96,0.00,,,0.00,Wunderground v.1.15,2013-08-19 08:18:00,
2013-08-19 04:24:00,80.0,78.8,30.06,WNW,303,1.0,3.0,96,0.00,,,0.00,Wunderground v.1.15,2013-08-19 08:24:00,
2013-08-19 04:29:00,80.0,78.8,30.06,NW,311,1.0,2.0,96,0.00,,,0.00,Wunderground v.1.15,2013-08-19 08:29:00,
2013-08-19 04:34:00,79.9,78.7,30.06,NW,313,1.0,2.0,96,0.00,,,0.00,Wunderground v.1.15,2013-08-19 08:34:00,
2013-08-19 04:39:00,79.8,78.2,30.05,NNW,345,1.0,1.0,95,0.00,,,0.00,Wunderground v.1.15,2013-08-19 08:39:00,
2013-08-19 04:44:00,79.6,78.0,30.05,NNW,343,1.0,1.0,95,0.00,,,0.00,Wunderground v.1.15,2013-08-19 08:44:00,
2013-08-19 04:49:00,79.5,77.9,30.05,NNW,343,0.0,1.0,95,0.00,,,0.00,Wunderground v.1.15,2013-08-19 08:49:00,
2013-08-19 04:54:00,79.4,77.8,30.05,NNW,340,0.0,1.0,95,0.00,,,0.00,Wunderground v.1.15,2013-08-19 08:54:00,
2013-08-19 04:59:00,79.3,77.7,30.05,NNW,340,0.0,0.0,95,0.00,,,0.00,Wunderground v.1.15,2013-08-19 08:59:00,
2013-08-19 05:08:00,79.2,77.6,30.05,NNW,340,0.0,0.0,95,0.00,,,0.00,Wunderground v.1.15,2013-08-19 09:08:00,
2013-08-19 05:13:00,79.0,77.4,30.06,NNW,340,0.0,0.0,95,0.00,,,0.00,Wunderground v.1.15,2013-08-19 09:13:00,
2013-08-19 05:19:00,78.9,77.7,30.05,NNW,340,0.0,0.0,96,0.00,,,0.00,Wunderground v.1.15,2013-08-19 09:19:00,
2013-08-19 05:24:00,78.7,77.5,30.05,NNW,340,0.0,0.0,96,0.00,,,0.00,Wunderground v.1.15,2013-08-19 09:24:00,
2013-08-19 05:29:00,78.7,77.5,30.05,NNW,340,0.0,0.0,96,0.00,,,0.00,Wunderground v.1.15,2013-08-19 09:29:00,
2013-08-19 05:34:00,78.8,77.9,30.05,NNW,340,0.0,0.0,97,0.00,,,0.00,Wunderground v.1.15,2013-08-19 09:34:00,
2013-08-19 05:39:00,78.7,77.5,30.05,NNW,340,0.0,0.0,96,0.00,,,0.00,Wunderground v.1.15,2013-08-19 09:39:00,
2013-08-19 05:44:00,78.7,77.8,30.05,NNW,344,0.0,0.0,97,0.00,,,0.00,Wunderground v.1.15,2013-08-19 09:44:00,
2013-08-19 05:54:00,78.6,77.7,30.05,NNW,344,0.0,0.0,97,0.00,,,0.00,Wunderground v.1.15,2013-08-19 09:54:00,
2013-08-19 05:59:00,78.5,77.6,30.05,NNW,344,0.0,0.0,97,0.00,,,0.00,Wunderground v.1.15,2013-08-19 09:59:00,
2013-08-19 06:04:00,78.5,77.6,30.04,NNW,344,0.0,0.0,97,0.00,,,0.00,Wunderground v.1.15,2013-08-19 10:04:00,
2013-08-19 06:09:00,78.5,77.6,30.05,NNW,344,0.0,0.0,97,0.00,,,0.00,Wunderground v.1.15,2013-08-19 10:09:00,
2013-08-19 06:14:00,78.4,77.5,30.05,NNW,345,0.0,0.0,97,0.00,,,0.00,Wunderground v.1.15,2013-08-19 10:14:00,
2013-08-19 06:19:00,78.3,77.4,30.05,NNW,345,0.0,0.0,97,0.00,,,0.00,Wunderground v.1.15,2013-08-19 10:19:00,
2013-08-19 06:24:00,78.1,77.2,30.05,NNW,344,0.0,0.0,97,0.00,,,0.00,Wunderground v.1.15,2013-08-19 10:24:00,
2013-08-19 06:29:00,77.9,77.0,30.05,NNW,344,0.0,0.0,97,0.00,,,0.00,Wunderground v.1.15,2013-08-19 10:29:00,
2013-08-19 06:34:00,77.8,76.9,30.05,NNW,344,0.0,0.0,97,0.00,,,0.00,Wunderground v.1.15,2013-08-19 10:34:00,
2013-08-19 06:39:00,78.0,77.4,30.05,NNW,345,0.0,0.0,98,0.00,,,0.00,Wunderground v.1.15,2013-08-19 10:39:00,
2013-08-19 06:44:00,78.2,77.6,30.05,NNW,345,0.0,1.0,98,0.00,,,0.00,Wunderground v.1.15,2013-08-19 10:44:00,
2013-08-19 06:48:00,78.5,78.2,30.05,NNW,342,0.0,0.0,99,0.00,,,0.00,Wunderground v.1.15,2013-08-19 10:48:00,
2013-08-19 06:53:00,78.6,78.0,30.05,NW,322,0.0,0.0,98,0.00,,,0.00,Wunderground v.1.15,2013-08-19 10:53:00,
2013-08-19 06:58:00,78.6,78.0,30.05,NW,321,0.0,0.0,98,0.00,,,0.00,Wunderground v.1.15,2013-08-19 10:58:00,
2013-08-19 07:04:00,78.8,78.2,30.05,WNW,293,0.0,1.0,98,0.00,,,0.00,Wunderground v.1.15,2013-08-19 11:04:00,
2013-08-19 07:14:00,79.0,78.4,30.06,WNW,293,0.0,1.0,98,0.00,,,0.00,Wunderground v.1.15,2013-08-19 11:14:00,
2013-08-19 07:19:00,79.0,78.4,30.06,WNW,293,0.0,0.0,98,0.00,,,0.00,Wunderground v.1.15,2013-08-19 11:19:00,
2013-08-19 07:24:00,79.0,78.4,30.06,WNW,293,0.0,0.0,98,0.00,,,0.00,Wunderground v.1.15,2013-08-19 11:24:00,
2013-08-19 07:29:00,79.1,78.5,30.06,WNW,300,0.0,0.0,98,0.00,,,0.00,Wunderground v.1.15,2013-08-19 11:29:00,
2013-08-19 07:33:00,79.2,78.6,30.06,NW,304,0.0,0.0,98,0.00,,,0.00,Wunderground v.1.15,2013-08-19 11:33:00,
2013-08-19 07:38:00,79.3,78.7,30.06,WNW,302,0.0,0.0,98,0.00,,,0.00,Wunderground v.1.15,2013-08-19 11:38:00,
2013-08-19 07:43:00,79.4,78.8,30.07,WNW,302,0.0,0.0,98,0.00,,,0.00,Wunderground v.1.15,2013-08-19 11:43:00,
2013-08-19 07:49:00,79.5,78.6,30.06,WNW,302,0.0,0.0,97,0.00,,,0.00,Wunderground v.1.15,2013-08-19 11:49:00,
2013-08-19 07:54:00,79.6,78.7,30.06,WNW,302,0.0,0.0,97,0.00,,,0.00,Wunderground v.1.15,2013-08-19 11:54:00,
2013-08-19 07:59:00,79.8,78.9,30.07,NW,307,0.0,0.0,97,0.00,,,0.00,Wunderground v.1.15,2013-08-19 11:59:00,
2013-08-19 08:04:00,80.0,79.1,30.07,NNW,330,0.0,1.0,97,0.00,,,0.00,Wunderground v.1.15,2013-08-19 12:04:00,
2013-08-19 08:14:00,80.7,79.5,30.07,WNW,302,1.0,1.0,96,0.00,,,0.00,Wunderground v.1.15,2013-08-19 12:14:00,
2013-08-19 08:19:00,81.1,79.5,30.07,NW,323,2.0,2.0,95,0.00,,,0.00,Wunderground v.1.15,2013-08-19 12:19:00,
2013-08-19 08:24:00,81.4,79.8,30.07,WNW,289,1.0,2.0,95,0.00,,,0.00,Wunderground v.1.15,2013-08-19 12:24:00,
2013-08-19 08:29:00,81.6,79.7,30.07,WNW,285,0.0,0.0,94,0.00,,,0.00,Wunderground v.1.15,2013-08-19 12:29:00,
2013-08-19 08:33:00,81.7,79.5,30.07,West,274,1.0,2.0,93,0.00,,,0.00,Wunderground v.1.15,2013-08-19 12:33:00,
2013-08-19 08:38:00,82.0,79.8,30.08,West,281,2.0,2.0,93,0.00,,,0.00,Wunderground v.1.15,2013-08-19 12:38:00,
2013-08-19 08:43:00,82.3,79.7,30.08,WNW,301,1.0,2.0,92,0.00,,,0.00,Wunderground v.1.15,2013-08-19 12:43:00,
2013-08-19 08:49:00,82.5,79.9,30.08,East,96,1.0,1.0,92,0.00,,,0.00,Wunderground v.1.15,2013-08-19 12:49:00,
2013-08-19 08:54:00,82.7,79.8,30.08,NW,323,1.0,2.0,91,0.00,,,0.00,Wunderground v.1.15,2013-08-19 12:54:00,
2013-08-19 08:59:00,83.1,79.9,30.08,NNE,28,1.0,1.0,90,0.00,,,0.00,Wunderground v.1.15,2013-08-19 12:59:00,
2013-08-19 09:04:00,83.7,80.5,30.08,WNW,284,1.0,1.0,90,0.00,,,0.00,Wunderground v.1.15,2013-08-19 13:04:00,
2013-08-19 09:09:00,83.8,79.9,30.08,NW,319,1.0,1.0,88,0.00,,,0.00,Wunderground v.1.15,2013-08-19 13:09:00,
2013-08-19 09:14:00,84.0,79.7,30.08,NNE,15,1.0,1.0,87,0.00,,,0.00,Wunderground v.1.15,2013-08-19 13:14:00,
2013-08-19 09:18:00,84.2,80.3,30.08,NW,314,1.0,2.0,88,0.00,,,0.00,Wunderground v.1.15,2013-08-19 13:18:00,
2013-08-19 09:23:00,84.4,80.1,30.08,West,281,2.0,5.0,87,0.00,,,0.00,Wunderground v.1.15,2013-08-19 13:23:00,
2013-08-19 09:28:00,84.6,79.9,30.08,West,280,2.0,2.0,86,0.00,,,0.00,Wunderground v.1.15,2013-08-19 13:28:00,
2013-08-19 09:34:00,84.8,79.8,30.08,NNW,329,2.0,2.0,85,0.00,,,0.00,Wunderground v.1.15,2013-08-19 13:34:00,
2013-08-19 09:39:00,85.0,80.0,30.08,ENE,63,1.0,1.0,85,0.00,,,0.00,Wunderground v.1.15,2013-08-19 13:39:00,
2013-08-19 09:44:00,85.6,79.8,30.08,ESE,117,1.0,1.0,83,0.00,,,0.00,Wunderground v.1.15,2013-08-19 13:44:00,
2013-08-19 09:49:00,86.4,80.2,30.08,ENE,77,1.0,1.0,82,0.00,,,0.00,Wunderground v.1.15,2013-08-19 13:49:00,
2013-08-19 09:54:00,87.2,80.7,30.08,East,81,1.0,1.0,81,0.00,,,0.00,Wunderground v.1.15,2013-08-19 13:54:00,
2013-08-19 09:59:00,87.2,80.3,30.08,WNW,290,1.0,1.0,80,0.00,,,0.00,Wunderground v.1.15,2013-08-19 13:59:00,
2013-08-19 10:04:00,86.9,79.6,30.08,NW,326,2.0,2.0,79,0.00,,,0.00,Wunderground v.1.15,2013-08-19 14:04:00,
2013-08-19 10:14:00,87.4,80.1,30.09,East,88,0.0,2.0,79,0.00,,,0.00,Wunderground v.1.15,2013-08-19 14:14:00,
2013-08-19 10:18:00,87.6,79.9,30.09,East,98,0.0,0.0,78,0.00,,,0.00,Wunderground v.1.15,2013-08-19 14:18:00,
2013-08-19 10:23:00,88.0,79.9,30.09,ENE,77,0.0,1.0,77,0.00,,,0.00,Wunderground v.1.15,2013-08-19 14:23:00,
2013-08-19 10:34:00,88.3,79.8,30.09,NW,312,1.0,2.0,76,0.00,,,0.00,Wunderground v.1.15,2013-08-19 14:34:00,
2013-08-19 10:39:00,89.1,79.7,30.09,East,84,1.0,1.0,74,0.00,,,0.00,Wunderground v.1.15,2013-08-19 14:39:00,
2013-08-19 10:44:00,89.3,79.5,30.09,ENE,74,1.0,2.0,73,0.00,,,0.00,Wunderground v.1.15,2013-08-19 14:44:00,
2013-08-19 10:49:00,89.0,79.6,30.09,East,93,1.0,1.0,74,0.00,,,0.00,Wunderground v.1.15,2013-08-19 14:49:00,
2013-08-19 10:54:00,89.0,78.8,30.09,WNW,296,1.0,1.0,72,0.00,,,0.00,Wunderground v.1.15,2013-08-19 14:54:00,
2013-08-19 10:59:00,89.4,77.9,30.09,WNW,285,2.0,4.0,69,0.00,,,0.00,Wunderground v.1.15,2013-08-19 14:59:00,
2013-08-19 11:04:00,89.3,78.2,30.09,East,90,2.0,4.0,70,0.00,,,0.00,Wunderground v.1.15,2013-08-19 15:04:00,
2013-08-19 11:08:00,89.9,78.4,30.09,ESE,110,2.0,2.0,69,0.00,,,0.00,Wunderground v.1.15,2013-08-19 15:08:00,
2013-08-19 11:13:00,90.1,77.2,30.08,ENE,65,1.0,2.0,66,0.00,,,0.00,Wunderground v.1.15,2013-08-19 15:13:00,
2013-08-19 11:19:00,90.0,77.1,30.08,East,86,1.0,1.0,66,0.00,,,0.00,Wunderground v.1.15,2013-08-19 15:19:00,
2013-08-19 11:24:00,89.3,77.8,30.08,East,89,2.0,2.0,69,0.00,,,0.00,Wunderground v.1.15,2013-08-19 15:24:00,
2013-08-19 11:29:00,89.0,78.4,30.08,West,274,2.0,3.0,71,0.00,,,0.00,Wunderground v.1.15,2013-08-19 15:29:00,
2013-08-19 11:34:00,88.8,78.6,30.09,West,276,2.0,3.0,72,0.00,,,0.00,Wunderground v.1.15,2013-08-19 15:34:00,
2013-08-19 11:39:00,88.8,79.0,30.09,East,84,2.0,2.0,73,0.00,,,0.00,Wunderground v.1.15,2013-08-19 15:39:00,
2013-08-19 11:44:00,89.5,78.8,30.08,NNW,346,2.0,2.0,71,0.00,,,0.00,Wunderground v.1.15,2013-08-19 15:44:00,
2013-08-19 11:48:00,89.3,79.5,30.08,South,187,2.0,2.0,73,0.00,,,0.00,Wunderground v.1.15,2013-08-19 15:48:00,
2013-08-19 11:53:00,89.5,80.1,30.08,WNW,300,2.0,3.0,74,0.00,,,0.00,Wunderground v.1.15,2013-08-19 15:53:00,
2013-08-19 11:58:00,89.5,79.7,30.08,WNW,298,2.0,5.0,73,0.00,,,0.00,Wunderground v.1.15,2013-08-19 15:58:00,
2013-08-19 12:04:00,87.9,79.4,30.08,WNW,296,2.0,5.0,76,0.00,,,0.00,Wunderground v.1.15,2013-08-19 16:04:00,
2013-08-19 12:14:00,88.1,79.6,30.08,WNW,290,2.0,3.0,76,0.00,,,0.00,Wunderground v.1.15,2013-08-19 16:14:00,
2013-08-19 12:18:00,88.5,79.6,30.08,North,350,2.0,2.0,75,0.00,,,0.00,Wunderground v.1.15,2013-08-19 16:18:00,
2013-08-19 12:23:00,88.8,79.4,30.08,WNW,302,2.0,3.0,74,0.00,,,0.00,Wunderground v.1.15,2013-08-19 16:23:00,
2013-08-19 12:28:00,89.1,79.3,30.07,North,8,2.0,2.0,73,0.00,,,0.00,Wunderground v.1.15,2013-08-19 16:28:00,
2013-08-19 12:34:00,88.8,78.6,30.07,WNW,292,2.0,2.0,72,0.00,,,0.00,Wunderground v.1.15,2013-08-19 16:34:00,
2013-08-19 12:39:00,87.7,78.0,30.08,WNW,286,2.0,6.0,73,0.00,,,0.00,Wunderground v.1.15,2013-08-19 16:39:00,
2013-08-19 12:44:00,86.5,77.6,30.08,NW,307,4.0,6.0,75,0.00,,,0.00,Wunderground v.1.15,2013-08-19 16:44:00,
2013-08-19 12:49:00,86.9,79.2,30.07,WNW,298,4.0,4.0,78,0.00,,,0.00,Wunderground v.1.15,2013-08-19 16:49:00,
2013-08-19 12:54:00,87.7,76.3,30.07,South,172,3.0,4.0,69,0.00,,,0.00,Wunderground v.1.15,2013-08-19 16:54:00,
2013-08-19 12:59:00,88.5,76.6,30.07,WNW,295,2.0,4.0,68,0.00,,,0.00,Wunderground v.1.15,2013-08-19 16:59:00,
2013-08-19 13:04:00,89.3,78.2,30.07,NNW,344,2.0,4.0,70,0.00,,,0.00,Wunderground v.1.15,2013-08-19 17:04:00,
2013-08-19 13:09:00,89.0,79.2,30.07,South,172,3.0,3.0,73,0.00,,,0.00,Wunderground v.1.15,2013-08-19 17:09:00,
2013-08-19 13:14:00,88.8,79.8,30.07,NNW,327,3.0,3.0,75,0.00,,,0.00,Wunderground v.1.15,2013-08-19 17:14:00,
2013-08-19 13:19:00,88.9,79.1,30.07,West,267,3.0,3.0,73,0.00,,,0.00,Wunderground v.1.15,2013-08-19 17:19:00,
2013-08-19 13:23:00,88.2,78.9,30.06,WNW,297,3.0,3.0,74,0.00,,,0.00,Wunderground v.1.15,2013-08-19 17:23:00,
2013-08-19 13:28:00,87.8,78.9,30.06,West,276,3.0,3.0,75,0.00,,,0.00,Wunderground v.1.15,2013-08-19 17:28:00,
2013-08-19 13:34:00,87.6,79.1,30.06,South,179,2.0,3.0,76,0.00,,,0.00,Wunderground v.1.15,2013-08-19 17:34:00,
2013-08-19 13:39:00,87.8,78.1,30.06,SW,231,3.0,4.0,73,0.00,,,0.00,Wunderground v.1.15,2013-08-19 17:39:00,
2013-08-19 13:44:00,87.6,78.3,30.06,SSE,158,3.0,4.0,74,0.00,,,0.00,Wunderground v.1.15,2013-08-19 17:44:00,
2013-08-19 13:48:00,88.3,79.8,30.06,WNW,294,2.0,3.0,76,0.00,,,0.00,Wunderground v.1.15,2013-08-19 17:48:00,
2013-08-19 13:53:00,88.8,78.6,30.07,SSW,192,2.0,4.0,72,0.00,,,0.00,Wunderground v.1.15,2013-08-19 17:53:00,
2013-08-19 13:59:00,88.3,78.1,30.06,SSW,208,3.0,3.0,72,0.00,,,0.00,Wunderground v.1.15,2013-08-19 17:59:00,
2013-08-19 14:04:00,88.3,78.1,30.06,WNW,293,3.0,3.0,72,0.00,,,0.00,Wunderground v.1.15,2013-08-19 18:04:00,
2013-08-19 14:08:00,88.5,78.3,30.06,NW,310,3.0,3.0,72,0.00,,,0.00,Wunderground v.1.15,2013-08-19 18:08:00,
2013-08-19 14:13:00,88.7,78.9,30.06,South,186,2.0,3.0,73,0.00,,,0.00,Wunderground v.1.15,2013-08-19 18:13:00,
2013-08-19 14:19:00,88.9,79.1,30.06,SSW,197,2.0,2.0,73,0.00,,,0.00,Wunderground v.1.15,2013-08-19 18:19:00,
2013-08-19 14:24:00,89.5,79.7,30.05,South,184,2.0,2.0,73,0.00,,,0.00,Wunderground v.1.15,2013-08-19 18:24:00,
2013-08-19 14:29:00,90.3,78.7,30.05,NNE,14,2.0,4.0,69,0.00,,,0.00,Wunderground v.1.15,2013-08-19 18:29:00,
2013-08-19 14:34:00,90.8,78.3,30.05,SSE,162,2.0,4.0,67,0.00,,,0.00,Wunderground v.1.15,2013-08-19 18:34:00,
2013-08-19 14:39:00,91.0,78.5,30.04,South,170,2.0,4.0,67,0.00,,,0.00,Wunderground v.1.15,2013-08-19 18:39:00,
2013-08-19 14:44:00,90.9,78.4,30.04,West,277,2.0,4.0,67,0.00,,,0.00,Wunderground v.1.15,2013-08-19 18:44:00,
2013-08-19 14:48:00,91.5,78.1,30.03,WNW,295,2.0,2.0,65,0.00,,,0.00,Wunderground v.1.15,2013-08-19 18:48:00,
2013-08-19 14:53:00,92.0,77.6,30.03,WSW,253,2.0,3.0,63,0.00,,,0.00,Wunderground v.1.15,2013-08-19 18:53:00,
2013-08-19 14:58:00,91.7,77.8,30.03,SSW,201,2.0,2.0,64,0.00,,,0.00,Wunderground v.1.15,2013-08-19 18:58:00,
2013-08-19 15:04:00,92.5,78.5,30.03,WNW,290,2.0,2.0,64,0.00,,,0.00,Wunderground v.1.15,2013-08-19 19:04:00,
2013-08-19 15:09:00,92.6,78.2,30.02,WNW,284,2.0,3.0,63,0.00,,,0.00,Wunderground v.1.15,2013-08-19 19:09:00,
2013-08-19 15:14:00,92.4,78.4,30.02,SSW,200,2.0,4.0,64,0.00,,,0.00,Wunderground v.1.15,2013-08-19 19:14:00,
2013-08-19 15:19:00,92.2,78.7,30.02,East,101,2.0,2.0,65,0.00,,,0.00,Wunderground v.1.15,2013-08-19 19:19:00,
2013-08-19 15:24:00,92.5,77.6,30.02,East,92,2.0,2.0,62,0.00,,,0.00,Wunderground v.1.15,2013-08-19 19:24:00,
2013-08-19 15:29:00,93.0,78.1,30.01,SW,232,2.0,6.0,62,0.00,,,0.00,Wunderground v.1.15,2013-08-19 19:29:00,
2013-08-19 15:34:00,92.5,77.1,30.01,West,269,2.0,6.0,61,0.00,,,0.00,Wunderground v.1.15,2013-08-19 19:34:00,
2013-08-19 15:43:00,92.6,80.0,30.00,WNW,287,2.0,3.0,67,0.00,,,0.00,Wunderground v.1.15,2013-08-19 19:43:00,
2013-08-19 15:49:00,92.1,79.1,30.00,SSW,196,3.0,5.0,66,0.00,,,0.00,Wunderground v.1.15,2013-08-19 19:49:00,
2013-08-19 15:54:00,92.0,79.5,30.00,ESE,115,3.0,5.0,67,0.00,,,0.00,Wunderground v.1.15,2013-08-19 19:54:00,
2013-08-19 15:59:00,92.0,79.0,30.00,SW,222,2.0,4.0,66,0.00,,,0.00,Wunderground v.1.15,2013-08-19 19:59:00,
2013-08-19 16:08:00,91.8,78.4,30.00,South,177,2.0,2.0,65,0.00,,,0.00,Wunderground v.1.15,2013-08-19 20:08:00,
2013-08-19 16:14:00,92.6,78.6,30.00,East,84,2.0,2.0,64,0.00,,,0.00,Wunderground v.1.15,2013-08-19 20:14:00,
2013-08-19 16:18:00,93.4,78.9,30.00,SE,124,1.0,1.0,63,0.00,,,0.00,Wunderground v.1.15,2013-08-19 20:18:00,
2013-08-19 16:23:00,94.1,79.1,30.00,SSW,207,1.0,1.0,62,0.00,,,0.00,Wunderground v.1.15,2013-08-19 20:23:00,
2013-08-19 16:28:00,94.3,80.2,30.00,SW,225,1.0,1.0,64,0.00,,,0.00,Wunderground v.1.15,2013-08-19 20:28:00,
2013-08-19 16:34:00,94.3,79.8,29.99,North,350,1.0,2.0,63,0.00,,,0.00,Wunderground v.1.15,2013-08-19 20:34:00,
2013-08-19 16:39:00,93.2,79.2,29.99,NW,304,2.0,4.0,64,0.00,,,0.00,Wunderground v.1.15,2013-08-19 20:39:00,
2013-08-19 16:44:00,92.3,79.8,29.99,West,268,2.0,4.0,67,0.00,,,0.00,Wunderground v.1.15,2013-08-19 20:44:00,
2013-08-19 16:49:00,92.1,79.1,29.99,NNW,344,2.0,2.0,66,0.00,,,0.00,Wunderground v.1.15,2013-08-19 20:49:00,
2013-08-19 16:54:00,92.5,79.0,29.99,WNW,287,1.0,3.0,65,0.00,,,0.00,Wunderground v.1.15,2013-08-19 20:54:00,
2013-08-19 16:59:00,92.5,78.5,29.99,WNW,285,2.0,2.0,64,0.00,,,0.00,Wunderground v.1.15,2013-08-19 20:59:00,
2013-08-19 17:04:00,92.3,78.8,29.99,WNW,300,2.0,2.0,65,0.00,,,0.00,Wunderground v.1.15,2013-08-19 21:04:00,
2013-08-19 17:08:00,91.8,78.8,29.99,NW,317,3.0,3.0,66,0.00,,,0.00,Wunderground v.1.15,2013-08-19 21:08:00,
2013-08-19 17:13:00,92.0,79.5,29.99,ENE,61,3.0,3.0,67,0.00,,,0.00,Wunderground v.1.15,2013-08-19 21:13:00,
2013-08-19 17:19:00,92.3,80.2,29.98,SW,225,2.0,2.0,68,0.00,,,0.00,Wunderground v.1.15,2013-08-19 21:19:00,
2013-08-19 17:23:00,92.2,80.1,29.99,East,88,2.0,2.0,68,0.00,,,0.00,Wunderground v.1.15,2013-08-19 21:23:00,
2013-08-19 17:28:00,91.9,79.4,29.99,WSW,253,2.0,2.0,67,0.00,,,0.00,Wunderground v.1.15,2013-08-19 21:28:00,
2013-08-19 17:34:00,92.3,79.8,29.99,West,266,2.0,2.0,67,0.00,,,0.00,Wunderground v.1.15,2013-08-19 21:34:00,
2013-08-19 17:39:00,92.7,80.1,29.98,ENE,77,2.0,2.0,67,0.00,,,0.00,Wunderground v.1.15,2013-08-19 21:39:00,
2013-08-19 17:44:00,93.1,80.5,29.98,North,359,2.0,3.0,67,0.00,,,0.00,Wunderground v.1.15,2013-08-19 21:44:00,
2013-08-19 17:48:00,92.8,80.7,29.98,NW,317,2.0,2.0,68,0.00,,,0.00,Wunderground v.1.15,2013-08-19 21:48:00,
2013-08-19 17:53:00,91.9,79.8,29.98,West,277,2.0,2.0,68,0.00,,,0.00,Wunderground v.1.15,2013-08-19 21:53:00,
2013-08-19 17:59:00,91.6,79.5,29.99,ENE,63,2.0,3.0,68,0.00,,,0.00,Wunderground v.1.15,2013-08-19 21:59:00,
2013-08-19 18:04:00,91.4,79.8,29.99,West,277,2.0,3.0,69,0.00,,,0.00,Wunderground v.1.15,2013-08-19 22:04:00,
2013-08-19 18:09:00,91.9,79.4,29.99,ENE,71,1.0,1.0,67,0.00,,,0.00,Wunderground v.1.15,2013-08-19 22:09:00,
2013-08-19 18:14:00,92.5,79.9,29.99,ESE,109,1.0,2.0,67,0.00,,,0.00,Wunderground v.1.15,2013-08-19 22:14:00,
2013-08-19 18:19:00,91.7,80.1,29.99,SSW,194,1.0,1.0,69,0.00,,,0.00,Wunderground v.1.15,2013-08-19 22:19:00,
2013-08-19 18:24:00,90.5,79.8,29.99,ENE,73,2.0,2.0,71,0.00,,,0.00,Wunderground v.1.15,2013-08-19 22:24:00,
2013-08-19 18:33:00,90.1,79.8,29.98,West,260,2.0,4.0,72,0.00,,,0.00,Wunderground v.1.15,2013-08-19 22:33:00,
2013-08-19 18:38:00,89.6,80.2,29.98,WNW,302,3.0,3.0,74,0.00,,,0.00,Wunderground v.1.15,2013-08-19 22:38:00,
2013-08-19 18:43:00,89.0,79.6,29.99,WNW,294,3.0,3.0,74,0.00,,,0.00,Wunderground v.1.15,2013-08-19 22:43:00,
2013-08-19 18:49:00,88.3,79.8,29.99,WNW,290,3.0,3.0,76,0.00,,,0.00,Wunderground v.1.15,2013-08-19 22:49:00,
2013-08-19 18:54:00,87.8,78.9,29.99,NW,304,3.0,3.0,75,0.00,,,0.00,Wunderground v.1.15,2013-08-19 22:54:00,
2013-08-19 18:59:00,87.6,79.1,29.99,WNW,293,2.0,3.0,76,0.00,,,0.00,Wunderground v.1.15,2013-08-19 22:59:00,
2013-08-19 19:04:00,87.4,78.9,29.99,WNW,300,1.0,3.0,76,0.00,,,0.00,Wunderground v.1.15,2013-08-19 23:04:00,
2013-08-19 19:09:00,87.4,78.9,30.00,NNW,333,1.0,1.0,76,0.00,,,0.00,Wunderground v.1.15,2013-08-19 23:09:00,
2013-08-19 19:14:00,87.5,79.4,30.00,WNW,285,0.0,1.0,77,0.00,,,0.00,Wunderground v.1.15,2013-08-19 23:14:00,
2013-08-19 19:19:00,87.1,79.4,30.00,NW,312,1.0,1.0,78,0.00,,,0.00,Wunderground v.1.15,2013-08-19 23:19:00,
2013-08-19 19:24:00,86.8,79.1,30.00,NW,308,2.0,2.0,78,0.00,,,0.00,Wunderground v.1.15,2013-08-19 23:24:00,
2013-08-19 19:28:00,86.5,78.8,30.00,NNW,328,2.0,3.0,78,0.00,,,0.00,Wunderground v.1.15,2013-08-19 23:28:00,
2013-08-19 19:33:00,86.1,78.8,30.00,WNW,298,2.0,5.0,79,0.00,,,0.00,Wunderground v.1.15,2013-08-19 23:33:00,
2013-08-19 19:38:00,85.9,78.6,30.00,WNW,298,2.0,2.0,79,0.00,,,0.00,Wunderground v.1.15,2013-08-19 23:38:00,
2013-08-19 19:43:00,85.7,78.4,30.00,NW,308,2.0,2.0,79,0.00,,,0.00,Wunderground v.1.15,2013-08-19 23:43:00,
2013-08-19 19:49:00,85.4,78.1,30.01,WNW,290,2.0,4.0,79,0.00,,,0.00,Wunderground v.1.15,2013-08-19 23:49:00,
2013-08-19 19:54:00,85.1,78.2,30.01,WNW,291,3.0,5.0,80,0.00,,,0.00,Wunderground v.1.15,2013-08-19 23:54:00,
2013-08-19 19:59:00,84.9,78.4,30.01,NW,314,2.0,2.0,81,0.00,,,0.00,Wunderground v.1.15,2013-08-19 23:59:00,
2013-08-19 20:04:00,84.7,78.6,30.02,NW,316,2.0,2.0,82,0.00,,,0.00,Wunderground v.1.15,2013-08-20 00:04:00,
2013-08-19 20:09:00,84.6,78.5,30.02,NE,50,2.0,2.0,82,0.00,,,0.00,Wunderground v.1.15,2013-08-20 00:09:00,
2013-08-19 20:14:00,84.4,78.3,30.01,North,359,2.0,2.0,82,0.00,,,0.00,Wunderground v.1.15,2013-08-20 00:14:00,
2013-08-19 20:19:00,84.3,78.6,30.01,West,280,2.0,3.0,83,0.00,,,0.00,Wunderground v.1.15,2013-08-20 00:19:00,
2013-08-19 20:24:00,84.1,78.4,30.01,WNW,298,2.0,3.0,83,0.00,,,0.00,Wunderground v.1.15,2013-08-20 00:24:00,
2013-08-19 20:29:00,83.9,78.5,30.02,West,264,2.0,2.0,84,0.00,,,0.00,Wunderground v.1.15,2013-08-20 00:29:00,
2013-08-19 20:33:00,83.8,78.4,30.02,NW,307,3.0,3.0,84,0.00,,,0.00,Wunderground v.1.15,2013-08-20 00:33:00,
2013-08-19 20:38:00,83.7,78.7,30.03,WNW,292,2.0,2.0,85,0.00,,,0.00,Wunderground v.1.15,2013-08-20 00:38:00,
2013-08-19 20:43:00,83.6,78.6,30.03,WNW,283,1.0,4.0,85,0.00,,,0.00,Wunderground v.1.15,2013-08-20 00:43:00,
2013-08-19 20:48:00,83.6,78.6,30.03,West,276,1.0,1.0,85,0.00,,,0.00,Wunderground v.1.15,2013-08-20 00:48:00,
2013-08-19 20:53:00,83.6,78.6,30.03,North,8,1.0,4.0,85,0.00,,,0.00,Wunderground v.1.15,2013-08-20 00:53:00,
2013-08-19 20:58:00,83.6,78.6,30.03,NW,321,1.0,2.0,85,0.00,,,0.00,Wunderground v.1.15,2013-08-20 00:58:00,
2013-08-19 21:04:00,83.5,78.9,30.03,WNW,301,2.0,2.0,86,0.00,,,0.00,Wunderground v.1.15,2013-08-20 01:04:00,
2013-08-19 21:09:00,83.4,78.8,30.04,WNW,295,1.0,1.0,86,0.00,,,0.00,Wunderground v.1.15,2013-08-20 01:09:00,
2013-08-19 21:14:00,83.3,78.7,30.04,WNW,295,1.0,1.0,86,0.00,,,0.00,Wunderground v.1.15,2013-08-20 01:14:00,
2013-08-19 21:19:00,83.2,78.6,30.04,NW,316,0.0,1.0,86,0.00,,,0.00,Wunderground v.1.15,2013-08-20 01:19:00,
2013-08-19 21:24:00,83.2,78.2,30.04,NNW,347,1.0,2.0,85,0.00,,,0.00,Wunderground v.1.15,2013-08-20 01:24:00,
2013-08-19 21:29:00,83.3,78.3,30.04,ENE,58,1.0,2.0,85,0.00,,,0.00,Wunderground v.1.15,2013-08-20 01:29:00,
2013-08-19 21:38:00,83.3,78.7,30.05,NE,41,1.0,1.0,86,0.00,,,0.00,Wunderground v.1.15,2013-08-20 01:38:00,
2013-08-19 21:43:00,83.3,78.7,30.05,WNW,295,1.0,1.0,86,0.00,,,0.00,Wunderground v.1.15,2013-08-20 01:43:00,
2013-08-19 21:49:00,83.2,78.6,30.05,East,97,1.0,1.0,86,0.00,,,0.00,Wunderground v.1.15,2013-08-20 01:49:00,
2013-08-19 21:53:00,83.1,78.8,30.06,East,94,0.0,1.0,87,0.00,,,0.00,Wunderground v.1.15,2013-08-20 01:53:00,
2013-08-19 21:58:00,83.0,78.7,30.06,NNE,15,0.0,0.0,87,0.00,,,0.00,Wunderground v.1.15,2013-08-20 01:58:00,
2013-08-19 22:04:00,82.9,78.6,30.06,ENE,65,1.0,1.0,87,0.00,,,0.00,Wunderground v.1.15,2013-08-20 02:04:00,
2013-08-19 22:09:00,82.8,78.9,30.06,NNW,335,1.0,1.0,88,0.00,,,0.00,Wunderground v.1.15,2013-08-20 02:09:00,
2013-08-19 22:14:00,82.7,78.8,30.06,NNW,335,0.0,1.0,88,0.00,,,0.00,Wunderground v.1.15,2013-08-20 02:14:00,
2013-08-19 22:19:00,82.5,78.6,30.06,North,359,0.0,0.0,88,0.00,,,0.00,Wunderground v.1.15,2013-08-20 02:19:00,
2013-08-19 22:29:00,82.4,78.8,30.07,WNW,290,1.0,1.0,89,0.00,,,0.00,Wunderground v.1.15,2013-08-20 02:29:00,
2013-08-19 22:38:00,82.3,78.7,30.07,WNW,290,0.0,0.0,89,0.00,,,0.00,Wunderground v.1.15,2013-08-20 02:38:00,
2013-08-19 22:43:00,82.2,78.6,30.07,WNW,289,0.0,0.0,89,0.00,,,0.00,Wunderground v.1.15,2013-08-20 02:43:00,
2013-08-19 22:49:00,82.1,78.5,30.07,WNW,289,0.0,0.0,89,0.00,,,0.00,Wunderground v.1.15,2013-08-20 02:49:00,
2013-08-19 22:54:00,82.2,78.6,30.07,WNW,291,0.0,0.0,89,0.00,,,0.00,Wunderground v.1.15,2013-08-20 02:54:00,
2013-08-19 22:59:00,82.2,78.6,30.07,WNW,291,0.0,0.0,89,0.00,,,0.00,Wunderground v.1.15,2013-08-20 02:59:00,
2013-08-19 23:04:00,82.2,79.0,30.07,WNW,291,0.0,0.0,90,0.00,,,0.00,Wunderground v.1.15,2013-08-20 03:04:00,
2013-08-19 23:09:00,82.3,78.7,30.07,WNW,291,0.0,0.0,89,0.00,,,0.00,Wunderground v.1.15,2013-08-20 03:09:00,
2013-08-19 23:14:00,82.2,78.6,30.07,WNW,291,0.0,0.0,89,0.00,,,0.00,Wunderground v.1.15,2013-08-20 03:14:00,
2013-08-19 23:23:00,81.9,78.7,30.07,WNW,291,0.0,0.0,90,0.00,,,0.00,Wunderground v.1.15,2013-08-20 03:23:00,
2013-08-19 23:28:00,81.5,77.6,30.08,SE,136,0.0,0.0,88,0.00,,,0.00,Wunderground v.1.15,2013-08-20 03:28:00,
2013-08-19 23:33:00,81.3,77.1,30.08,ESE,103,0.0,0.0,87,0.00,,,0.00,Wunderground v.1.15,2013-08-20 03:33:00,
2013-08-19 23:38:00,81.2,76.6,30.08,East,84,1.0,1.0,86,0.00,,,0.00,Wunderground v.1.15,2013-08-20 03:38:00,
2013-08-19 23:43:00,81.1,76.5,30.08,ENE,69,1.0,2.0,86,0.00,,,0.00,Wunderground v.1.15,2013-08-20 03:43:00,
2013-08-19 23:49:00,81.0,76.1,30.08,SE,129,1.0,2.0,85,0.00,,,0.00,Wunderground v.1.15,2013-08-20 03:49:00,
2013-08-19 23:54:00,80.9,76.0,30.08,ESE,110,1.0,2.0,85,0.00,,,0.00,Wunderground v.1.15,2013-08-20 03:54:00,
2013-08-19 23:59:00,80.8,75.9,30.08,ESE,120,1.0,1.0,85,0.00,,,0.00,Wunderground v.1.15,2013-08-20 03:59:00,